sensor_id;sensor_type;location;lat;lon;timestamp;P1;durP1;ratioP1;P2;durP2;ratioP2
4696;SDS011;2362;50.780;0.292;2023-05-09T00:00:42;28.88;;;10.23;;
4696;SDS011;2362;50.780;0.292;2023-05-09T00:03:08;26.58;;;10.45;;
4696;SDS011;2362;50.780;0.292;2023-05-09T00:05:35;23.65;;;9.45;;
4696;SDS011;2362;50.780;0.292;2023-05-09T00:08:01;26.02;;;10.05;;
4696;SDS011;2362;50.780;0.292;2023-05-09T00:10:26;22.40;;;9.02;;
4696;SDS011;2362;50.780;0.292;2023-05-09T00:12:52;30.92;;;9.82;;
4696;SDS011;2362;50.780;0.292;2023-05-09T00:15:18;31.55;;;9.52;;
4696;SDS011;2362;50.780;0.292;2023-05-09T00:17:44;30.73;;;9.20;;
4696;SDS011;2362;50.780;0.292;2023-05-09T00:20:10;24.05;;;9.15;;
4696;SDS011;2362;50.780;0.292;2023-05-09T00:22:40;28.40;;;8.88;;
4696;SDS011;2362;50.780;0.292;2023-05-09T00:25:06;33.70;;;10.27;;
4696;SDS011;2362;50.780;0.292;2023-05-09T00:27:33;26.55;;;8.63;;
4696;SDS011;2362;50.780;0.292;2023-05-09T00:29:58;17.90;;;7.82;;
4696;SDS011;2362;50.780;0.292;2023-05-09T00:32:24;31.75;;;8.82;;
4696;SDS011;2362;50.780;0.292;2023-05-09T00:34:50;21.15;;;8.15;;
4696;SDS011;2362;50.780;0.292;2023-05-09T00:37:17;35.70;;;9.82;;
4696;SDS011;2362;50.780;0.292;2023-05-09T00:39:43;24.45;;;8.32;;
4696;SDS011;2362;50.780;0.292;2023-05-09T00:42:10;24.63;;;9.20;;
4696;SDS011;2362;50.780;0.292;2023-05-09T00:44:36;23.23;;;8.10;;
4696;SDS011;2362;50.780;0.292;2023-05-09T00:47:01;23.92;;;7.57;;
4696;SDS011;2362;50.780;0.292;2023-05-09T00:49:27;18.58;;;7.85;;
4696;SDS011;2362;50.780;0.292;2023-05-09T00:51:53;24.45;;;8.60;;
4696;SDS011;2362;50.780;0.292;2023-05-09T00:54:20;23.08;;;8.70;;
4696;SDS011;2362;50.780;0.292;2023-05-09T00:56:45;36.45;;;9.82;;
4696;SDS011;2362;50.780;0.292;2023-05-09T00:59:11;36.00;;;9.50;;
4696;SDS011;2362;50.780;0.292;2023-05-09T01:01:37;48.88;;;10.27;;
4696;SDS011;2362;50.780;0.292;2023-05-09T01:04:02;39.88;;;9.32;;
4696;SDS011;2362;50.780;0.292;2023-05-09T01:06:36;39.35;;;9.85;;
4696;SDS011;2362;50.780;0.292;2023-05-09T01:15:53;43.13;;;9.50;;
4696;SDS011;2362;50.780;0.292;2023-05-09T01:18:24;44.95;;;9.75;;
4696;SDS011;2362;50.780;0.292;2023-05-09T01:20:52;53.67;;;9.32;;
4696;SDS011;2362;50.780;0.292;2023-05-09T01:31:58;38.53;;;7.35;;
4696;SDS011;2362;50.780;0.292;2023-05-09T01:34:27;30.40;;;7.40;;
4696;SDS011;2362;50.780;0.292;2023-05-09T01:36:55;41.42;;;8.38;;
4696;SDS011;2362;50.780;0.292;2023-05-09T01:39:24;39.63;;;8.52;;
4696;SDS011;2362;50.780;0.292;2023-05-09T01:41:52;33.83;;;8.43;;
4696;SDS011;2362;50.780;0.292;2023-05-09T01:44:20;31.90;;;8.43;;
4696;SDS011;2362;50.780;0.292;2023-05-09T01:46:48;28.10;;;7.45;;
4696;SDS011;2362;50.780;0.292;2023-05-09T01:49:43;39.55;;;8.32;;
4696;SDS011;2362;50.780;0.292;2023-05-09T01:52:12;24.33;;;7.00;;
4696;SDS011;2362;50.780;0.292;2023-05-09T01:54:40;24.00;;;7.00;;
4696;SDS011;2362;50.780;0.292;2023-05-09T01:57:08;23.20;;;6.85;;
4696;SDS011;2362;50.780;0.292;2023-05-09T01:59:36;30.58;;;7.40;;
4696;SDS011;2362;50.780;0.292;2023-05-09T02:02:04;17.92;;;6.72;;
4696;SDS011;2362;50.780;0.292;2023-05-09T02:04:31;22.50;;;7.75;;
4696;SDS011;2362;50.780;0.292;2023-05-09T02:06:58;24.88;;;7.22;;
4696;SDS011;2362;50.780;0.292;2023-05-09T02:09:50;20.27;;;6.63;;
4696;SDS011;2362;50.780;0.292;2023-05-09T02:12:18;23.45;;;6.80;;
4696;SDS011;2362;50.780;0.292;2023-05-09T02:14:44;22.08;;;6.47;;
4696;SDS011;2362;50.780;0.292;2023-05-09T02:17:10;21.33;;;7.63;;
4696;SDS011;2362;50.780;0.292;2023-05-09T02:19:41;28.65;;;6.22;;
4696;SDS011;2362;50.780;0.292;2023-05-09T02:22:07;24.88;;;5.78;;
4696;SDS011;2362;50.780;0.292;2023-05-09T02:24:34;20.58;;;6.43;;
4696;SDS011;2362;50.780;0.292;2023-05-09T02:27:03;16.98;;;5.03;;
4696;SDS011;2362;50.780;0.292;2023-05-09T02:29:33;24.05;;;5.80;;
4696;SDS011;2362;50.780;0.292;2023-05-09T02:32:07;17.27;;;4.70;;
4696;SDS011;2362;50.780;0.292;2023-05-09T02:34:35;14.85;;;4.50;;
4696;SDS011;2362;50.780;0.292;2023-05-09T02:37:02;13.95;;;3.97;;
4696;SDS011;2362;50.780;0.292;2023-05-09T02:39:29;22.30;;;5.20;;
4696;SDS011;2362;50.780;0.292;2023-05-09T02:41:55;18.92;;;5.35;;
4696;SDS011;2362;50.780;0.292;2023-05-09T02:44:21;20.92;;;6.20;;
4696;SDS011;2362;50.780;0.292;2023-05-09T02:46:46;17.23;;;5.30;;
4696;SDS011;2362;50.780;0.292;2023-05-09T02:49:12;22.60;;;5.03;;
4696;SDS011;2362;50.780;0.292;2023-05-09T02:51:37;12.40;;;5.18;;
4696;SDS011;2362;50.780;0.292;2023-05-09T02:54:03;10.93;;;5.30;;
4696;SDS011;2362;50.780;0.292;2023-05-09T02:56:54;14.38;;;4.75;;
4696;SDS011;2362;50.780;0.292;2023-05-09T02:59:24;21.50;;;5.68;;
4696;SDS011;2362;50.780;0.292;2023-05-09T03:01:50;14.68;;;4.93;;
4696;SDS011;2362;50.780;0.292;2023-05-09T03:04:16;18.55;;;4.93;;
4696;SDS011;2362;50.780;0.292;2023-05-09T03:06:42;20.00;;;5.45;;
4696;SDS011;2362;50.780;0.292;2023-05-09T03:09:08;17.42;;;5.57;;
4696;SDS011;2362;50.780;0.292;2023-05-09T03:11:34;15.20;;;5.18;;
4696;SDS011;2362;50.780;0.292;2023-05-09T03:14:03;21.88;;;6.05;;
4696;SDS011;2362;50.780;0.292;2023-05-09T03:16:29;24.42;;;6.10;;
4696;SDS011;2362;50.780;0.292;2023-05-09T03:18:55;22.02;;;5.72;;
4696;SDS011;2362;50.780;0.292;2023-05-09T03:21:21;18.13;;;5.50;;
4696;SDS011;2362;50.780;0.292;2023-05-09T03:23:48;14.85;;;5.15;;
4696;SDS011;2362;50.780;0.292;2023-05-09T03:26:14;16.63;;;5.80;;
4696;SDS011;2362;50.780;0.292;2023-05-09T03:28:39;20.15;;;6.97;;
4696;SDS011;2362;50.780;0.292;2023-05-09T03:31:05;28.77;;;7.07;;
4696;SDS011;2362;50.780;0.292;2023-05-09T03:33:31;14.50;;;6.78;;
4696;SDS011;2362;50.780;0.292;2023-05-09T03:35:56;19.77;;;7.22;;
4696;SDS011;2362;50.780;0.292;2023-05-09T03:38:22;39.15;;;9.63;;
4696;SDS011;2362;50.780;0.292;2023-05-09T03:40:52;22.90;;;8.25;;
4696;SDS011;2362;50.780;0.292;2023-05-09T03:43:19;33.05;;;7.82;;
4696;SDS011;2362;50.780;0.292;2023-05-09T03:45:45;22.77;;;7.28;;
4696;SDS011;2362;50.780;0.292;2023-05-09T03:48:10;44.00;;;8.05;;
4696;SDS011;2362;50.780;0.292;2023-05-09T03:50:36;28.75;;;6.57;;
4696;SDS011;2362;50.780;0.292;2023-05-09T03:53:02;30.85;;;8.50;;
4696;SDS011;2362;50.780;0.292;2023-05-09T03:55:31;33.33;;;8.40;;
4696;SDS011;2362;50.780;0.292;2023-05-09T03:57:57;36.75;;;8.68;;
4696;SDS011;2362;50.780;0.292;2023-05-09T04:00:23;38.22;;;10.00;;
4696;SDS011;2362;50.780;0.292;2023-05-09T04:02:50;30.25;;;9.15;;
4696;SDS011;2362;50.780;0.292;2023-05-09T04:05:16;50.13;;;9.23;;
4696;SDS011;2362;50.780;0.292;2023-05-09T04:07:42;42.88;;;9.65;;
4696;SDS011;2362;50.780;0.292;2023-05-09T04:10:08;36.42;;;9.05;;
4696;SDS011;2362;50.780;0.292;2023-05-09T04:12:34;25.33;;;8.52;;
4696;SDS011;2362;50.780;0.292;2023-05-09T04:15:00;28.70;;;8.35;;
4696;SDS011;2362;50.780;0.292;2023-05-09T04:17:25;31.92;;;9.45;;
4696;SDS011;2362;50.780;0.292;2023-05-09T04:19:51;40.88;;;10.38;;
4696;SDS011;2362;50.780;0.292;2023-05-09T04:22:17;41.55;;;9.20;;
4696;SDS011;2362;50.780;0.292;2023-05-09T04:24:42;31.88;;;8.68;;
4696;SDS011;2362;50.780;0.292;2023-05-09T04:27:08;43.42;;;10.80;;
4696;SDS011;2362;50.780;0.292;2023-05-09T04:29:34;37.78;;;9.77;;
4696;SDS011;2362;50.780;0.292;2023-05-09T04:32:00;36.88;;;9.45;;
4696;SDS011;2362;50.780;0.292;2023-05-09T04:34:29;36.22;;;10.20;;
4696;SDS011;2362;50.780;0.292;2023-05-09T04:36:55;34.63;;;9.35;;
4696;SDS011;2362;50.780;0.292;2023-05-09T04:39:21;47.65;;;9.98;;
4696;SDS011;2362;50.780;0.292;2023-05-09T04:41:47;44.25;;;9.98;;
4696;SDS011;2362;50.780;0.292;2023-05-09T04:44:14;40.00;;;10.32;;
4696;SDS011;2362;50.780;0.292;2023-05-09T04:46:40;58.47;;;11.00;;
4696;SDS011;2362;50.780;0.292;2023-05-09T04:49:06;43.78;;;10.27;;
4696;SDS011;2362;50.780;0.292;2023-05-09T04:51:31;47.63;;;10.95;;
4696;SDS011;2362;50.780;0.292;2023-05-09T04:53:57;45.63;;;10.80;;
4696;SDS011;2362;50.780;0.292;2023-05-09T04:56:23;38.53;;;10.65;;
4696;SDS011;2362;50.780;0.292;2023-05-09T04:58:48;40.03;;;10.43;;
4696;SDS011;2362;50.780;0.292;2023-05-09T05:01:14;36.88;;;11.45;;
4696;SDS011;2362;50.780;0.292;2023-05-09T05:03:40;31.20;;;10.43;;
4696;SDS011;2362;50.780;0.292;2023-05-09T05:06:06;35.17;;;11.57;;
4696;SDS011;2362;50.780;0.292;2023-05-09T05:08:32;37.25;;;13.48;;
4696;SDS011;2362;50.780;0.292;2023-05-09T05:10:58;35.58;;;13.60;;
4696;SDS011;2362;50.780;0.292;2023-05-09T05:13:23;44.17;;;13.30;;
4696;SDS011;2362;50.780;0.292;2023-05-09T05:15:49;52.42;;;15.80;;
4696;SDS011;2362;50.780;0.292;2023-05-09T05:18:15;54.60;;;12.75;;
4696;SDS011;2362;50.780;0.292;2023-05-09T05:20:41;45.40;;;12.90;;
4696;SDS011;2362;50.780;0.292;2023-05-09T05:23:07;48.40;;;12.55;;
4696;SDS011;2362;50.780;0.292;2023-05-09T05:25:34;52.42;;;12.98;;
4696;SDS011;2362;50.780;0.292;2023-05-09T05:28:00;36.60;;;12.25;;
4696;SDS011;2362;50.780;0.292;2023-05-09T05:30:26;37.72;;;13.18;;
4696;SDS011;2362;50.780;0.292;2023-05-09T05:32:51;41.45;;;14.77;;
4696;SDS011;2362;50.780;0.292;2023-05-09T05:35:17;39.88;;;13.32;;
4696;SDS011;2362;50.780;0.292;2023-05-09T05:37:45;39.88;;;13.80;;
4696;SDS011;2362;50.780;0.292;2023-05-09T05:40:11;43.20;;;14.02;;
4696;SDS011;2362;50.780;0.292;2023-05-09T05:42:37;37.70;;;14.10;;
4696;SDS011;2362;50.780;0.292;2023-05-09T05:45:03;43.58;;;15.00;;
4696;SDS011;2362;50.780;0.292;2023-05-09T05:47:33;37.75;;;15.27;;
4696;SDS011;2362;50.780;0.292;2023-05-09T05:49:59;35.35;;;13.95;;
4696;SDS011;2362;50.780;0.292;2023-05-09T05:52:25;29.25;;;13.68;;
4696;SDS011;2362;50.780;0.292;2023-05-09T05:54:54;30.63;;;13.85;;
4696;SDS011;2362;50.780;0.292;2023-05-09T05:57:20;26.23;;;13.13;;
4696;SDS011;2362;50.780;0.292;2023-05-09T05:59:46;30.92;;;12.63;;
4696;SDS011;2362;50.780;0.292;2023-05-09T06:02:17;32.80;;;13.95;;
4696;SDS011;2362;50.780;0.292;2023-05-09T06:04:43;23.35;;;11.85;;
4696;SDS011;2362;50.780;0.292;2023-05-09T06:07:09;27.38;;;12.60;;
4696;SDS011;2362;50.780;0.292;2023-05-09T06:09:36;30.95;;;12.65;;
4696;SDS011;2362;50.780;0.292;2023-05-09T06:12:02;31.52;;;12.95;;
4696;SDS011;2362;50.780;0.292;2023-05-09T06:14:28;23.02;;;12.25;;
4696;SDS011;2362;50.780;0.292;2023-05-09T06:16:53;28.60;;;11.20;;
4696;SDS011;2362;50.780;0.292;2023-05-09T06:19:19;19.33;;;9.98;;
4696;SDS011;2362;50.780;0.292;2023-05-09T06:21:45;17.45;;;9.10;;
4696;SDS011;2362;50.780;0.292;2023-05-09T06:24:11;16.50;;;7.53;;
4696;SDS011;2362;50.780;0.292;2023-05-09T06:26:37;19.65;;;8.38;;
4696;SDS011;2362;50.780;0.292;2023-05-09T06:29:03;16.83;;;8.98;;
4696;SDS011;2362;50.780;0.292;2023-05-09T06:31:30;14.60;;;7.18;;
4696;SDS011;2362;50.780;0.292;2023-05-09T06:33:57;20.48;;;8.75;;
4696;SDS011;2362;50.780;0.292;2023-05-09T06:36:23;16.45;;;7.85;;
4696;SDS011;2362;50.780;0.292;2023-05-09T06:38:49;16.35;;;7.38;;
4696;SDS011;2362;50.780;0.292;2023-05-09T06:41:14;16.80;;;8.43;;
4696;SDS011;2362;50.780;0.292;2023-05-09T06:43:40;11.73;;;7.93;;
4696;SDS011;2362;50.780;0.292;2023-05-09T06:46:06;13.57;;;8.38;;
4696;SDS011;2362;50.780;0.292;2023-05-09T06:48:31;20.20;;;8.80;;
4696;SDS011;2362;50.780;0.292;2023-05-09T06:50:57;17.85;;;9.30;;
4696;SDS011;2362;50.780;0.292;2023-05-09T06:53:23;15.68;;;9.20;;
4696;SDS011;2362;50.780;0.292;2023-05-09T06:55:48;15.93;;;9.88;;
4696;SDS011;2362;50.780;0.292;2023-05-09T06:58:14;20.08;;;8.60;;
4696;SDS011;2362;50.780;0.292;2023-05-09T07:00:40;20.08;;;7.95;;
4696;SDS011;2362;50.780;0.292;2023-05-09T07:03:06;17.75;;;8.80;;
4696;SDS011;2362;50.780;0.292;2023-05-09T07:05:56;15.75;;;9.50;;
4696;SDS011;2362;50.780;0.292;2023-05-09T07:08:48;20.02;;;8.48;;
4696;SDS011;2362;50.780;0.292;2023-05-09T07:11:39;15.10;;;8.55;;
4696;SDS011;2362;50.780;0.292;2023-05-09T07:14:06;16.33;;;8.10;;
4696;SDS011;2362;50.780;0.292;2023-05-09T07:16:32;19.02;;;9.65;;
4696;SDS011;2362;50.780;0.292;2023-05-09T07:18:57;13.23;;;8.88;;
4696;SDS011;2362;50.780;0.292;2023-05-09T07:21:23;14.07;;;8.50;;
4696;SDS011;2362;50.780;0.292;2023-05-09T07:23:49;13.05;;;8.15;;
4696;SDS011;2362;50.780;0.292;2023-05-09T07:26:15;16.50;;;8.68;;
4696;SDS011;2362;50.780;0.292;2023-05-09T07:28:40;13.82;;;9.18;;
4696;SDS011;2362;50.780;0.292;2023-05-09T07:31:06;14.18;;;8.85;;
4696;SDS011;2362;50.780;0.292;2023-05-09T07:33:33;16.95;;;8.85;;
4696;SDS011;2362;50.780;0.292;2023-05-09T07:35:59;12.73;;;8.23;;
4696;SDS011;2362;50.780;0.292;2023-05-09T07:38:50;10.57;;;6.47;;
4696;SDS011;2362;50.780;0.292;2023-05-09T07:41:18;9.55;;;5.68;;
4696;SDS011;2362;50.780;0.292;2023-05-09T07:43:44;7.10;;;4.32;;
4696;SDS011;2362;50.780;0.292;2023-05-09T07:46:10;10.85;;;5.05;;
4696;SDS011;2362;50.780;0.292;2023-05-09T07:48:36;7.13;;;3.75;;
4696;SDS011;2362;50.780;0.292;2023-05-09T07:51:01;7.75;;;3.88;;
4696;SDS011;2362;50.780;0.292;2023-05-09T07:53:27;5.75;;;3.70;;
4696;SDS011;2362;50.780;0.292;2023-05-09T07:55:53;5.68;;;3.55;;
4696;SDS011;2362;50.780;0.292;2023-05-09T07:58:18;7.57;;;3.47;;
4696;SDS011;2362;50.780;0.292;2023-05-09T08:00:44;7.72;;;3.47;;
4696;SDS011;2362;50.780;0.292;2023-05-09T08:03:10;4.97;;;3.63;;
4696;SDS011;2362;50.780;0.292;2023-05-09T08:05:35;5.15;;;3.40;;
4696;SDS011;2362;50.780;0.292;2023-05-09T08:08:01;5.65;;;3.28;;
4696;SDS011;2362;50.780;0.292;2023-05-09T08:10:27;10.60;;;3.75;;
4696;SDS011;2362;50.780;0.292;2023-05-09T08:12:55;10.18;;;5.72;;
4696;SDS011;2362;50.780;0.292;2023-05-09T08:15:21;9.05;;;5.20;;
4696;SDS011;2362;50.780;0.292;2023-05-09T08:17:46;12.68;;;5.93;;
4696;SDS011;2362;50.780;0.292;2023-05-09T08:20:12;8.40;;;5.93;;
4696;SDS011;2362;50.780;0.292;2023-05-09T08:22:38;13.20;;;6.75;;
4696;SDS011;2362;50.780;0.292;2023-05-09T08:25:05;11.88;;;6.53;;
4696;SDS011;2362;50.780;0.292;2023-05-09T08:27:31;8.93;;;5.65;;
4696;SDS011;2362;50.780;0.292;2023-05-09T08:29:57;7.13;;;5.22;;
4696;SDS011;2362;50.780;0.292;2023-05-09T08:32:23;7.30;;;5.03;;
4696;SDS011;2362;50.780;0.292;2023-05-09T08:34:49;10.35;;;5.03;;
4696;SDS011;2362;50.780;0.292;2023-05-09T08:37:15;9.23;;;5.38;;
4696;SDS011;2362;50.780;0.292;2023-05-09T08:39:41;7.95;;;4.82;;
4696;SDS011;2362;50.780;0.292;2023-05-09T08:42:07;9.38;;;6.18;;
4696;SDS011;2362;50.780;0.292;2023-05-09T08:44:34;12.52;;;5.85;;
4696;SDS011;2362;50.780;0.292;2023-05-09T08:47:02;10.75;;;6.15;;
4696;SDS011;2362;50.780;0.292;2023-05-09T08:49:29;7.18;;;5.70;;
4696;SDS011;2362;50.780;0.292;2023-05-09T08:51:55;10.82;;;5.35;;
4696;SDS011;2362;50.780;0.292;2023-05-09T08:54:22;10.40;;;5.88;;
4696;SDS011;2362;50.780;0.292;2023-05-09T08:56:49;8.23;;;6.18;;
4696;SDS011;2362;50.780;0.292;2023-05-09T08:59:15;7.55;;;5.88;;
4696;SDS011;2362;50.780;0.292;2023-05-09T09:01:42;7.18;;;4.97;;
4696;SDS011;2362;50.780;0.292;2023-05-09T09:04:08;9.52;;;5.63;;
4696;SDS011;2362;50.780;0.292;2023-05-09T09:06:36;9.77;;;4.90;;
4696;SDS011;2362;50.780;0.292;2023-05-09T09:09:04;8.73;;;5.82;;
4696;SDS011;2362;50.780;0.292;2023-05-09T09:11:32;9.48;;;4.68;;
4696;SDS011;2362;50.780;0.292;2023-05-09T09:14:01;8.13;;;4.88;;
4696;SDS011;2362;50.780;0.292;2023-05-09T09:16:37;9.80;;;5.88;;
4696;SDS011;2362;50.780;0.292;2023-05-09T09:19:05;9.45;;;4.75;;
4696;SDS011;2362;50.780;0.292;2023-05-09T09:21:36;8.75;;;5.22;;
4696;SDS011;2362;50.780;0.292;2023-05-09T09:24:05;7.40;;;5.32;;
4696;SDS011;2362;50.780;0.292;2023-05-09T09:26:32;10.18;;;5.18;;
4696;SDS011;2362;50.780;0.292;2023-05-09T09:28:58;7.03;;;6.00;;
4696;SDS011;2362;50.780;0.292;2023-05-09T09:31:24;8.48;;;6.82;;
4696;SDS011;2362;50.780;0.292;2023-05-09T09:33:57;11.48;;;6.93;;
4696;SDS011;2362;50.780;0.292;2023-05-09T09:36:25;11.65;;;7.53;;
4696;SDS011;2362;50.780;0.292;2023-05-09T09:38:57;10.05;;;6.53;;
4696;SDS011;2362;50.780;0.292;2023-05-09T09:41:34;11.32;;;6.47;;
4696;SDS011;2362;50.780;0.292;2023-05-09T09:44:07;10.05;;;6.45;;
4696;SDS011;2362;50.780;0.292;2023-05-09T09:46:42;12.95;;;7.60;;
4696;SDS011;2362;50.780;0.292;2023-05-09T09:49:16;9.50;;;6.25;;
4696;SDS011;2362;50.780;0.292;2023-05-09T09:51:43;11.57;;;5.57;;
4696;SDS011;2362;50.780;0.292;2023-05-09T09:54:10;10.05;;;5.35;;
4696;SDS011;2362;50.780;0.292;2023-05-09T09:56:44;8.45;;;6.30;;
4696;SDS011;2362;50.780;0.292;2023-05-09T09:59:15;9.93;;;6.78;;
4696;SDS011;2362;50.780;0.292;2023-05-09T10:04:25;10.70;;;8.13;;
4696;SDS011;2362;50.780;0.292;2023-05-09T10:06:57;12.13;;;6.70;;
4696;SDS011;2362;50.780;0.292;2023-05-09T10:09:24;10.55;;;7.03;;
4696;SDS011;2362;50.780;0.292;2023-05-09T10:11:51;15.93;;;8.23;;
4696;SDS011;2362;50.780;0.292;2023-05-09T10:14:22;12.77;;;8.45;;
4696;SDS011;2362;50.780;0.292;2023-05-09T10:16:50;13.27;;;7.65;;
4696;SDS011;2362;50.780;0.292;2023-05-09T10:19:19;11.77;;;7.53;;
4696;SDS011;2362;50.780;0.292;2023-05-09T10:21:53;13.73;;;7.10;;
4696;SDS011;2362;50.780;0.292;2023-05-09T10:27:05;11.07;;;7.53;;
4696;SDS011;2362;50.780;0.292;2023-05-09T10:29:35;14.00;;;7.25;;
4696;SDS011;2362;50.780;0.292;2023-05-09T10:32:15;8.15;;;6.45;;
4696;SDS011;2362;50.780;0.292;2023-05-09T10:34:46;9.98;;;5.97;;
4696;SDS011;2362;50.780;0.292;2023-05-09T10:37:15;6.90;;;5.13;;
4696;SDS011;2362;50.780;0.292;2023-05-09T10:39:41;11.10;;;5.38;;
4696;SDS011;2362;50.780;0.292;2023-05-09T10:42:08;4.32;;;3.90;;
4696;SDS011;2362;50.780;0.292;2023-05-09T10:44:34;5.93;;;3.80;;
4696;SDS011;2362;50.780;0.292;2023-05-09T10:47:01;8.43;;;4.32;;
4696;SDS011;2362;50.780;0.292;2023-05-09T10:49:27;7.07;;;4.25;;
4696;SDS011;2362;50.780;0.292;2023-05-09T10:51:53;7.53;;;5.20;;
4696;SDS011;2362;50.780;0.292;2023-05-09T10:54:26;8.65;;;6.22;;
4696;SDS011;2362;50.780;0.292;2023-05-09T10:56:53;11.57;;;6.10;;
4696;SDS011;2362;50.780;0.292;2023-05-09T11:02:00;10.73;;;6.65;;
4696;SDS011;2362;50.780;0.292;2023-05-09T11:04:29;5.18;;;4.68;;
4696;SDS011;2362;50.780;0.292;2023-05-09T11:06:59;13.23;;;5.88;;
4696;SDS011;2362;50.780;0.292;2023-05-09T11:11:52;8.35;;;5.07;;
4696;SDS011;2362;50.780;0.292;2023-05-09T11:14:32;6.60;;;4.70;;
4696;SDS011;2362;50.780;0.292;2023-05-09T11:17:09;7.25;;;5.68;;
4696;SDS011;2362;50.780;0.292;2023-05-09T11:22:24;5.10;;;4.00;;
4696;SDS011;2362;50.780;0.292;2023-05-09T11:27:39;5.03;;;4.18;;
4696;SDS011;2362;50.780;0.292;2023-05-09T11:30:07;6.75;;;4.05;;
4696;SDS011;2362;50.780;0.292;2023-05-09T11:32:49;6.35;;;3.70;;
4696;SDS011;2362;50.780;0.292;2023-05-09T11:35:23;4.88;;;4.05;;
4696;SDS011;2362;50.780;0.292;2023-05-09T11:37:51;11.10;;;4.47;;
4696;SDS011;2362;50.780;0.292;2023-05-09T11:40:24;5.00;;;4.05;;
4696;SDS011;2362;50.780;0.292;2023-05-09T11:42:50;7.78;;;4.75;;
4696;SDS011;2362;50.780;0.292;2023-05-09T11:45:21;5.72;;;3.83;;
4696;SDS011;2362;50.780;0.292;2023-05-09T11:47:49;9.68;;;4.90;;
4696;SDS011;2362;50.780;0.292;2023-05-09T11:50:16;8.35;;;4.82;;
4696;SDS011;2362;50.780;0.292;2023-05-09T11:52:43;10.38;;;4.88;;
4696;SDS011;2362;50.780;0.292;2023-05-09T11:55:14;7.30;;;3.90;;
4696;SDS011;2362;50.780;0.292;2023-05-09T11:57:46;11.63;;;4.28;;
4696;SDS011;2362;50.780;0.292;2023-05-09T12:00:21;7.45;;;3.85;;
4696;SDS011;2362;50.780;0.292;2023-05-09T12:02:48;3.90;;;3.00;;
4696;SDS011;2362;50.780;0.292;2023-05-09T12:05:16;6.03;;;3.55;;
4696;SDS011;2362;50.780;0.292;2023-05-09T12:07:43;3.80;;;3.28;;
4696;SDS011;2362;50.780;0.292;2023-05-09T12:10:18;6.78;;;3.92;;
4696;SDS011;2362;50.780;0.292;2023-05-09T12:12:49;7.63;;;3.30;;
4696;SDS011;2362;50.780;0.292;2023-05-09T12:15:16;11.63;;;4.00;;
4696;SDS011;2362;50.780;0.292;2023-05-09T12:17:42;5.75;;;3.92;;
4696;SDS011;2362;50.780;0.292;2023-05-09T12:20:08;16.25;;;4.57;;
4696;SDS011;2362;50.780;0.292;2023-05-09T12:22:34;8.05;;;4.85;;
4696;SDS011;2362;50.780;0.292;2023-05-09T12:25:05;11.00;;;4.75;;
4696;SDS011;2362;50.780;0.292;2023-05-09T12:27:33;5.45;;;4.63;;
4696;SDS011;2362;50.780;0.292;2023-05-09T12:30:00;10.38;;;6.07;;
4696;SDS011;2362;50.780;0.292;2023-05-09T12:32:28;9.73;;;5.70;;
4696;SDS011;2362;50.780;0.292;2023-05-09T12:34:57;15.75;;;5.78;;
4696;SDS011;2362;50.780;0.292;2023-05-09T12:37:23;10.35;;;5.85;;
4696;SDS011;2362;50.780;0.292;2023-05-09T12:39:59;7.50;;;5.55;;
4696;SDS011;2362;50.780;0.292;2023-05-09T12:42:29;10.63;;;6.63;;
4696;SDS011;2362;50.780;0.292;2023-05-09T12:44:55;11.05;;;6.15;;
4696;SDS011;2362;50.780;0.292;2023-05-09T12:47:22;14.15;;;6.35;;
4696;SDS011;2362;50.780;0.292;2023-05-09T12:49:55;16.85;;;6.32;;
4696;SDS011;2362;50.780;0.292;2023-05-09T12:52:21;13.10;;;6.50;;
4696;SDS011;2362;50.780;0.292;2023-05-09T12:54:47;13.55;;;6.47;;
4696;SDS011;2362;50.780;0.292;2023-05-09T12:57:23;17.33;;;6.45;;
4696;SDS011;2362;50.780;0.292;2023-05-09T12:59:56;14.90;;;6.07;;
4696;SDS011;2362;50.780;0.292;2023-05-09T13:02:22;16.70;;;6.60;;
4696;SDS011;2362;50.780;0.292;2023-05-09T13:05:04;14.13;;;6.40;;
4696;SDS011;2362;50.780;0.292;2023-05-09T13:07:38;9.30;;;5.32;;
4696;SDS011;2362;50.780;0.292;2023-05-09T13:10:08;7.50;;;4.68;;
4696;SDS011;2362;50.780;0.292;2023-05-09T13:12:36;11.02;;;6.00;;
4696;SDS011;2362;50.780;0.292;2023-05-09T13:15:03;7.38;;;5.28;;
4696;SDS011;2362;50.780;0.292;2023-05-09T13:17:30;9.45;;;6.15;;
4696;SDS011;2362;50.780;0.292;2023-05-09T13:19:56;14.88;;;6.82;;
4696;SDS011;2362;50.780;0.292;2023-05-09T13:22:22;12.60;;;6.18;;
4696;SDS011;2362;50.780;0.292;2023-05-09T13:24:47;15.75;;;5.97;;
4696;SDS011;2362;50.780;0.292;2023-05-09T13:27:13;14.35;;;6.18;;
4696;SDS011;2362;50.780;0.292;2023-05-09T13:29:39;12.77;;;5.43;;
4696;SDS011;2362;50.780;0.292;2023-05-09T13:32:04;14.43;;;5.18;;
4696;SDS011;2362;50.780;0.292;2023-05-09T13:34:31;9.32;;;5.10;;
4696;SDS011;2362;50.780;0.292;2023-05-09T13:36:57;19.40;;;6.57;;
4696;SDS011;2362;50.780;0.292;2023-05-09T13:39:22;11.00;;;5.30;;
4696;SDS011;2362;50.780;0.292;2023-05-09T13:41:48;12.23;;;5.45;;
4696;SDS011;2362;50.780;0.292;2023-05-09T13:44:16;10.88;;;5.88;;
4696;SDS011;2362;50.780;0.292;2023-05-09T13:46:42;17.67;;;5.32;;
4696;SDS011;2362;50.780;0.292;2023-05-09T13:49:09;18.40;;;5.90;;
4696;SDS011;2362;50.780;0.292;2023-05-09T13:51:36;16.15;;;4.38;;
4696;SDS011;2362;50.780;0.292;2023-05-09T13:54:02;7.47;;;3.38;;
4696;SDS011;2362;50.780;0.292;2023-05-09T13:56:32;9.05;;;3.70;;
4696;SDS011;2362;50.780;0.292;2023-05-09T13:58:58;12.57;;;3.80;;
4696;SDS011;2362;50.780;0.292;2023-05-09T14:01:24;19.13;;;3.83;;
4696;SDS011;2362;50.780;0.292;2023-05-09T14:03:49;10.73;;;3.58;;
4696;SDS011;2362;50.780;0.292;2023-05-09T14:06:15;9.38;;;2.65;;
4696;SDS011;2362;50.780;0.292;2023-05-09T14:08:40;16.73;;;3.10;;
4696;SDS011;2362;50.780;0.292;2023-05-09T14:11:31;11.10;;;3.75;;
4696;SDS011;2362;50.780;0.292;2023-05-09T14:13:57;11.63;;;3.22;;
4696;SDS011;2362;50.780;0.292;2023-05-09T14:16:23;14.10;;;3.83;;
4696;SDS011;2362;50.780;0.292;2023-05-09T14:18:48;24.85;;;5.63;;
4696;SDS011;2362;50.780;0.292;2023-05-09T14:21:14;14.43;;;4.53;;
4696;SDS011;2362;50.780;0.292;2023-05-09T14:23:43;16.48;;;4.22;;
4696;SDS011;2362;50.780;0.292;2023-05-09T14:26:08;17.40;;;4.13;;
4696;SDS011;2362;50.780;0.292;2023-05-09T14:28:34;19.17;;;5.72;;
4696;SDS011;2362;50.780;0.292;2023-05-09T14:31:01;16.48;;;4.70;;
4696;SDS011;2362;50.780;0.292;2023-05-09T14:33:27;23.88;;;4.93;;
4696;SDS011;2362;50.780;0.292;2023-05-09T14:35:53;15.10;;;4.72;;
4696;SDS011;2362;50.780;0.292;2023-05-09T14:38:18;19.90;;;4.22;;
4696;SDS011;2362;50.780;0.292;2023-05-09T14:40:45;17.13;;;5.35;;
4696;SDS011;2362;50.780;0.292;2023-05-09T14:43:10;18.58;;;3.72;;
4696;SDS011;2362;50.780;0.292;2023-05-09T14:45:36;19.88;;;4.15;;
4696;SDS011;2362;50.780;0.292;2023-05-09T14:48:03;18.42;;;4.03;;
4696;SDS011;2362;50.780;0.292;2023-05-09T14:50:28;18.60;;;4.47;;
4696;SDS011;2362;50.780;0.292;2023-05-09T14:52:54;19.83;;;4.35;;
4696;SDS011;2362;50.780;0.292;2023-05-09T14:55:45;11.70;;;3.65;;
4696;SDS011;2362;50.780;0.292;2023-05-09T14:58:11;14.52;;;4.18;;
4696;SDS011;2362;50.780;0.292;2023-05-09T15:00:37;9.27;;;4.00;;
4696;SDS011;2362;50.780;0.292;2023-05-09T15:03:03;14.63;;;4.93;;
4696;SDS011;2362;50.780;0.292;2023-05-09T15:05:29;12.48;;;5.20;;
4696;SDS011;2362;50.780;0.292;2023-05-09T15:07:54;18.20;;;4.65;;
4696;SDS011;2362;50.780;0.292;2023-05-09T15:10:20;13.18;;;4.95;;
4696;SDS011;2362;50.780;0.292;2023-05-09T15:12:46;20.92;;;4.85;;
4696;SDS011;2362;50.780;0.292;2023-05-09T15:15:19;13.20;;;4.85;;
4696;SDS011;2362;50.780;0.292;2023-05-09T15:17:47;20.27;;;4.65;;
4696;SDS011;2362;50.780;0.292;2023-05-09T15:20:13;15.65;;;4.32;;
4696;SDS011;2362;50.780;0.292;2023-05-09T15:22:39;21.42;;;5.60;;
4696;SDS011;2362;50.780;0.292;2023-05-09T15:25:05;17.67;;;4.88;;
4696;SDS011;2362;50.780;0.292;2023-05-09T15:27:56;14.00;;;5.20;;
4696;SDS011;2362;50.780;0.292;2023-05-09T15:30:23;16.35;;;5.35;;
4696;SDS011;2362;50.780;0.292;2023-05-09T15:32:49;12.65;;;5.03;;
4696;SDS011;2362;50.780;0.292;2023-05-09T15:35:14;16.30;;;5.70;;
4696;SDS011;2362;50.780;0.292;2023-05-09T15:37:42;13.68;;;5.68;;